Time;durP1;ratioP1;P1;durP2;ratioP2;P2;SDS_P1;SDS_P2;PMS_P1;PMS_P2;Temp;Humidity;BMP_temperature;BMP_pressure;BME280_temperature;BME280_humidity;BME280_pressure;Samples;Min_cycle;Max_cycle;Signal;HPM_P1;HPM_P2
2021/07/08 00:01:53;;;;;;;7.90;4.82;;;24.90;99.90;;;;;;5108085;28;20485;-74
2021/07/08 00:04:19;;;;;;;5.72;3.92;;;24.80;99.90;;;;;;5102187;28;20031;-74
2021/07/08 00:06:45;;;;;;;5.00;3.78;;;24.80;99.90;;;;;;5108627;28;20425;-73
2021/07/08 00:09:11;;;;;;;6.88;4.47;;;24.80;99.90;;;;;;5109043;28;20019;-73
2021/07/08 00:11:37;;;;;;;4.65;4.25;;;24.70;99.90;;;;;;5109200;28;20080;-74
2021/07/08 00:14:04;;;;;;;5.15;4.50;;;24.70;99.90;;;;;;5112898;28;20481;-76
2021/07/08 00:16:31;;;;;;;4.82;3.97;;;24.70;99.90;;;;;;5109815;28;20046;-76
2021/07/08 00:18:57;;;;;;;5.97;4.55;;;24.60;99.90;;;;;;5109523;28;20032;-75
2021/07/08 00:21:24;;;;;;;4.47;4.03;;;24.60;99.90;;;;;;5111314;28;20032;-74
2021/07/08 00:23:51;;;;;;;6.60;4.85;;;24.60;99.90;;;;;;5112937;28;20046;-73
2021/07/08 00:26:17;;;;;;;3.92;3.55;;;24.60;99.90;;;;;;5114442;27;20038;-76
2021/07/08 00:28:43;;;;;;;6.18;4.22;;;24.50;99.90;;;;;;5115574;28;20103;-75
2021/07/08 00:31:09;;;;;;;4.43;4.03;;;24.50;99.90;;;;;;5110209;28;20019;-73
2021/07/08 00:33:36;;;;;;;8.57;4.38;;;24.60;99.90;;;;;;5106579;28;20092;-75
2021/07/08 00:36:02;;;;;;;4.75;4.35;;;24.70;99.90;;;;;;5117611;28;20024;-75
2021/07/08 00:38:28;;;;;;;4.25;3.85;;;24.70;99.90;;;;;;5114840;28;20477;-74
2021/07/08 00:40:53;;;;;;;5.78;4.20;;;24.90;99.90;;;;;;5109224;28;20028;-73
2021/07/08 00:43:19;;;;;;;5.95;3.63;;;25.00;99.90;;;;;;5105942;28;20023;-75
2021/07/08 00:45:45;;;;;;;10.70;4.05;;;25.00;99.90;;;;;;5107157;28;20036;-74
2021/07/08 00:48:11;;;;;;;5.72;3.80;;;25.10;99.90;;;;;;5110758;28;20030;-74
2021/07/08 00:50:42;;;;;;;6.82;3.55;;;25.30;99.90;;;;;;5110266;28;20061;-74
2021/07/08 00:53:09;;;;;;;6.33;3.37;;;25.30;99.90;;;;;;5105068;28;20039;-74
2021/07/08 00:55:35;;;;;;;5.32;3.22;;;25.40;99.90;;;;;;5106706;28;20321;-74
2021/07/08 00:58:01;;;;;;;4.07;3.40;;;25.50;99.90;;;;;;5109466;28;20114;-74
2021/07/08 01:00:32;;;;;;;5.60;3.03;;;25.50;99.90;;;;;;5101610;28;20374;-74
2021/07/08 01:02:59;;;;;;;5.40;3.30;;;25.60;99.90;;;;;;5110747;28;20054;-73
2021/07/08 01:05:32;;;;;;;3.28;2.97;;;25.60;99.90;;;;;;5107988;28;20024;-75
2021/07/08 01:07:59;;;;;;;2.88;2.67;;;25.60;99.90;;;;;;5110838;28;20389;-75
2021/07/08 01:10:25;;;;;;;6.05;4.93;;;25.60;99.90;;;;;;5110267;28;20020;-74
2021/07/08 01:12:51;;;;;;;4.35;3.95;;;25.60;99.90;;;;;;5104511;28;20030;-75
2021/07/08 01:15:16;;;;;;;4.35;3.95;;;25.60;99.90;;;;;;5111448;28;20051;-75
2021/07/08 01:17:46;;;;;;;3.95;3.63;;;25.60;99.90;;;;;;5106308;27;20367;-76
2021/07/08 01:20:14;;;;;;;5.75;3.20;;;25.70;99.90;;;;;;5115167;28;20097;-74
2021/07/08 01:22:40;;;;;;;7.82;3.15;;;25.70;99.90;;;;;;5114489;28;20034;-74
2021/07/08 01:25:17;;;;;;;4.43;2.63;;;25.80;99.90;;;;;;5119353;28;20027;-74
2021/07/08 01:27:43;;;;;;;2.83;2.38;;;25.80;99.90;;;;;;5108217;28;20031;-73
2021/07/08 01:30:12;;;;;;;8.27;2.67;;;25.80;99.90;;;;;;5110325;28;20028;-73
2021/07/08 01:32:38;;;;;;;2.85;2.65;;;25.90;99.90;;;;;;5102231;28;20019;-75
2021/07/08 01:35:07;;;;;;;5.95;2.70;;;26.00;99.90;;;;;;5112562;28;20031;-74
2021/07/08 01:37:33;;;;;;;5.78;2.65;;;26.00;99.90;;;;;;5095425;28;20024;-73
2021/07/08 01:40:00;;;;;;;4.07;2.40;;;26.00;99.90;;;;;;5108038;28;20020;-74
2021/07/08 01:42:28;;;;;;;6.15;2.75;;;26.00;99.90;;;;;;5105603;28;20016;-73
2021/07/08 01:44:54;;;;;;;4.60;2.50;;;26.00;99.90;;;;;;5097420;28;20027;-74
2021/07/08 01:47:20;;;;;;;4.43;2.42;;;26.00;99.90;;;;;;5105729;28;20133;-73
2021/07/08 01:49:46;;;;;;;2.95;2.40;;;26.10;99.90;;;;;;5111159;28;20035;-73
2021/07/08 01:52:12;;;;;;;6.65;2.55;;;26.10;99.90;;;;;;5095569;28;20034;-74
2021/07/08 01:54:37;;;;;;;3.92;2.92;;;26.10;99.90;;;;;;5107682;28;20031;-74
2021/07/08 01:57:03;;;;;;;4.32;2.25;;;26.10;99.90;;;;;;5103798;28;20028;-74
2021/07/08 01:59:29;;;;;;;3.05;2.75;;;26.10;99.90;;;;;;5111361;28;20039;-76
2021/07/08 02:01:55;;;;;;;3.15;2.20;;;26.10;99.90;;;;;;5108533;28;20024;-74
2021/07/08 02:04:21;;;;;;;4.75;2.35;;;26.10;99.90;;;;;;5106940;28;20117;-74
2021/07/08 02:06:46;;;;;;;3.15;2.50;;;26.10;99.90;;;;;;5102773;27;20031;-74
2021/07/08 02:09:12;;;;;;;3.40;2.25;;;26.10;99.90;;;;;;5102822;28;20028;-74
2021/07/08 02:11:38;;;;;;;5.82;2.67;;;26.10;99.90;;;;;;5106521;28;20082;-75
2021/07/08 02:14:05;;;;;;;4.63;2.90;;;26.10;99.90;;;;;;5105624;28;20017;-75
2021/07/08 02:16:34;;;;;;;5.20;2.22;;;26.10;99.90;;;;;;5110350;28;20164;-74
2021/07/08 02:19:00;;;;;;;5.75;2.33;;;26.10;99.90;;;;;;5106967;28;20039;-75
2021/07/08 02:21:28;;;;;;;2.50;2.30;;;26.10;99.90;;;;;;5104108;28;20023;-74
2021/07/08 02:23:54;;;;;;;4.32;2.78;;;26.20;99.90;;;;;;5104455;28;20032;-74
2021/07/08 02:26:20;;;;;;;2.20;2.10;;;26.20;99.90;;;;;;5110577;28;20034;-75
2021/07/08 02:28:45;;;;;;;2.45;2.10;;;26.30;99.90;;;;;;5111295;28;20020;-74
2021/07/08 02:31:11;;;;;;;8.93;2.55;;;26.30;99.90;;;;;;5107460;28;20019;-73
2021/07/08 02:33:38;;;;;;;3.13;2.40;;;26.40;99.90;;;;;;5107643;28;20024;-74
2021/07/08 02:36:04;;;;;;;5.40;2.25;;;26.40;99.90;;;;;;5105892;28;20028;-74
2021/07/08 02:38:30;;;;;;;2.83;2.15;;;26.40;99.90;;;;;;5110843;28;20378;-75
2021/07/08 02:40:56;;;;;;;6.60;2.63;;;26.40;99.90;;;;;;5109839;28;20053;-75
2021/07/08 02:43:22;;;;;;;2.45;2.25;;;26.40;99.90;;;;;;5101596;28;20022;-75
2021/07/08 02:45:48;;;;;;;5.18;2.38;;;26.40;99.90;;;;;;5105951;28;20038;-75
2021/07/08 02:48:20;;;;;;;3.13;2.65;;;26.40;99.90;;;;;;5110595;28;20094;-74
2021/07/08 02:50:51;;;;;;;4.53;2.20;;;26.30;99.90;;;;;;5104894;28;20028;-74
2021/07/08 02:53:18;;;;;;;5.40;2.25;;;26.30;99.90;;;;;;5096842;28;20107;-74
2021/07/08 02:55:47;;;;;;;2.30;2.10;;;26.10;99.90;;;;;;5105935;28;20043;-74
2021/07/08 02:58:13;;;;;;;3.92;2.80;;;26.10;99.90;;;;;;5107245;28;20092;-75
2021/07/08 03:00:39;;;;;;;6.45;2.67;;;26.10;99.90;;;;;;5108962;28;20023;-75
2021/07/08 03:03:05;;;;;;;2.50;1.98;;;26.00;99.90;;;;;;5104551;28;20040;-74
2021/07/08 03:05:31;;;;;;;4.38;2.60;;;26.00;99.90;;;;;;5108904;28;21734;-74
2021/07/08 03:07:57;;;;;;;2.72;2.42;;;26.10;99.90;;;;;;5101430;28;20027;-74
2021/07/08 03:10:26;;;;;;;6.32;2.72;;;26.10;99.90;;;;;;5108424;28;20027;-75
2021/07/08 03:12:52;;;;;;;6.43;2.30;;;26.10;99.90;;;;;;5103359;28;20023;-74
2021/07/08 03:15:18;;;;;;;3.03;2.53;;;26.20;99.90;;;;;;5107367;28;20016;-75
2021/07/08 03:17:44;;;;;;;2.75;2.55;;;26.20;99.90;;;;;;5107795;28;20036;-74
2021/07/08 03:20:14;;;;;;;2.63;2.35;;;26.20;99.90;;;;;;5110104;28;20028;-75
2021/07/08 03:22:41;;;;;;;6.50;2.83;;;26.20;99.90;;;;;;5109630;28;20028;-74
2021/07/08 03:25:11;;;;;;;3.75;3.05;;;26.20;99.90;;;;;;5110065;28;20448;-76
2021/07/08 03:27:37;;;;;;;2.53;2.33;;;26.20;99.90;;;;;;5106566;28;20078;-75
2021/07/08 03:30:06;;;;;;;2.38;2.20;;;26.20;99.90;;;;;;5112744;28;20034;-73
2021/07/08 03:32:32;;;;;;;3.08;2.40;;;26.20;99.90;;;;;;5107467;28;20053;-74
2021/07/08 03:34:58;;;;;;;2.45;2.20;;;26.10;99.90;;;;;;5114899;28;20028;-73
2021/07/08 03:37:23;;;;;;;3.00;2.65;;;26.10;99.90;;;;;;5111553;28;20024;-76
2021/07/08 03:39:51;;;;;;;5.43;2.78;;;26.20;99.90;;;;;;5110999;28;20493;-75
2021/07/08 03:42:17;;;;;;;3.45;2.78;;;26.20;99.90;;;;;;5108192;28;20024;-75
2021/07/08 03:44:45;;;;;;;3.40;2.42;;;26.20;99.90;;;;;;5107784;28;20100;-75
2021/07/08 03:47:11;;;;;;;4.53;1.90;;;26.20;99.90;;;;;;5112801;28;20023;-74
2021/07/08 03:49:37;;;;;;;4.28;2.35;;;26.30;99.90;;;;;;5104865;28;20038;-73
2021/07/08 03:52:03;;;;;;;5.35;2.78;;;26.30;99.90;;;;;;5108527;28;20054;-74
2021/07/08 03:54:31;;;;;;;2.92;2.50;;;26.30;99.90;;;;;;5111927;28;20078;-73
2021/07/08 03:56:57;;;;;;;5.07;2.40;;;26.30;99.90;;;;;;5102689;28;20058;-75
2021/07/08 03:59:22;;;;;;;2.65;2.45;;;26.30;99.90;;;;;;5111196;28;20093;-76
2021/07/08 04:01:48;;;;;;;5.95;2.08;;;26.40;99.90;;;;;;5111700;28;20528;-74
2021/07/08 04:04:14;;;;;;;2.42;2.10;;;26.40;99.90;;;;;;5110073;28;20068;-75
2021/07/08 04:06:40;;;;;;;4.22;2.63;;;26.40;99.90;;;;;;5112869;28;20055;-74
2021/07/08 04:09:12;;;;;;;4.22;3.75;;;26.50;99.90;;;;;;5109002;28;20034;-74
2021/07/08 04:11:37;;;;;;;3.75;2.67;;;26.50;99.90;;;;;;5119541;28;20024;-74
2021/07/08 04:14:03;;;;;;;7.28;2.42;;;26.50;99.90;;;;;;5111977;28;20078;-75
2021/07/08 04:16:29;;;;;;;4.03;2.63;;;26.60;99.90;;;;;;5113178;28;21371;-75
2021/07/08 04:18:55;;;;;;;4.68;2.30;;;26.50;99.90;;;;;;5106919;27;20111;-75
2021/07/08 04:21:20;;;;;;;2.97;2.40;;;26.60;99.90;;;;;;5109398;28;20053;-75
2021/07/08 04:23:46;;;;;;;4.45;2.78;;;26.50;99.90;;;;;;5112760;28;20493;-74
2021/07/08 04:26:15;;;;;;;2.85;2.50;;;26.60;99.90;;;;;;5108846;28;20627;-74
2021/07/08 04:28:41;;;;;;;4.45;2.33;;;26.60;99.90;;;;;;5110059;28;20146;-74
2021/07/08 04:31:16;;;;;;;3.35;2.22;;;26.70;99.90;;;;;;5113860;28;20021;-75
2021/07/08 04:33:43;;;;;;;6.35;2.92;;;26.80;99.90;;;;;;5106905;28;20152;-74
2021/07/08 04:36:11;;;;;;;3.88;3.58;;;26.90;99.90;;;;;;5111668;28;20030;-74
2021/07/08 04:38:40;;;;;;;2.85;2.47;;;26.90;99.90;;;;;;5107721;28;20063;-75
2021/07/08 04:41:09;;;;;;;12.13;3.58;;;27.00;99.90;;;;;;5113529;28;20020;-74
2021/07/08 04:43:35;;;;;;;9.70;2.90;;;27.00;99.90;;;;;;5112054;28;20115;-75
2021/07/08 04:46:01;;;;;;;9.00;2.40;;;27.10;99.90;;;;;;5105553;28;20063;-74
2021/07/08 04:48:35;;;;;;;4.60;4.20;;;27.10;99.90;;;;;;5107971;28;20031;-74
2021/07/08 04:51:02;;;;;;;3.80;3.50;;;27.20;99.90;;;;;;5109966;28;20038;-74
2021/07/08 04:53:31;;;;;;;6.32;3.83;;;27.30;99.90;;;;;;5107054;28;20510;-75
2021/07/08 04:55:59;;;;;;;9.85;6.70;;;27.30;99.90;;;;;;5102755;28;20038;-77
2021/07/08 04:58:27;;;;;;;9.02;6.20;;;27.40;99.90;;;;;;5107881;28;20420;-75
2021/07/08 05:00:52;;;;;;;9.02;7.88;;;27.40;99.90;;;;;;5107165;28;20034;-77
2021/07/08 05:03:18;;;;;;;3.40;3.20;;;27.40;99.90;;;;;;5110205;28;20135;-75
2021/07/08 05:05:44;;;;;;;4.88;3.47;;;27.40;99.90;;;;;;5110864;28;20035;-72
2021/07/08 05:08:10;;;;;;;5.55;3.13;;;27.50;99.90;;;;;;5110038;28;20024;-65
2021/07/08 05:10:36;;;;;;;4.03;2.42;;;27.50;99.90;;;;;;5110066;27;20361;-65
2021/07/08 05:13:01;;;;;;;5.35;2.85;;;27.60;99.90;;;;;;5109799;28;20028;-65
2021/07/08 05:15:27;;;;;;;3.50;3.20;;;27.50;99.90;;;;;;5102287;28;20114;-64
2021/07/08 05:17:53;;;;;;;4.47;3.38;;;27.60;99.90;;;;;;5102234;27;20076;-65
2021/07/08 05:20:19;;;;;;;9.43;2.85;;;27.60;99.90;;;;;;5110854;28;20027;-64
2021/07/08 05:22:49;;;;;;;3.72;2.72;;;27.60;99.90;;;;;;5097889;28;20043;-66
2021/07/08 05:25:16;;;;;;;7.73;3.67;;;27.70;99.90;;;;;;5091570;28;20020;-64
2021/07/08 05:27:43;;;;;;;4.15;2.70;;;27.60;99.90;;;;;;5091471;28;20318;-64
2021/07/08 05:30:10;;;;;;;2.88;2.22;;;27.60;99.90;;;;;;5091906;28;20024;-65
2021/07/08 05:32:36;;;;;;;7.13;3.00;;;27.60;99.90;;;;;;5092090;28;20059;-67
2021/07/08 05:35:03;;;;;;;9.27;2.90;;;27.70;99.90;;;;;;5108068;28;20059;-65
2021/07/08 05:37:29;;;;;;;6.25;2.40;;;27.70;99.90;;;;;;5105468;27;20047;-63
2021/07/08 05:39:55;;;;;;;2.50;2.30;;;27.80;99.90;;;;;;5111454;28;20496;-65
2021/07/08 05:42:21;;;;;;;5.95;3.83;;;27.90;99.90;;;;;;5094259;28;20039;-64
2021/07/08 05:44:46;;;;;;;5.38;2.92;;;28.00;99.90;;;;;;5106933;27;20024;-65
2021/07/08 05:47:12;;;;;;;8.25;2.75;;;28.10;99.90;;;;;;5102966;28;20015;-64
2021/07/08 05:49:38;;;;;;;7.65;3.28;;;28.10;99.90;;;;;;5106958;28;20016;-65
2021/07/08 05:52:09;;;;;;;10.20;4.43;;;28.10;99.90;;;;;;5102257;28;20024;-65
2021/07/08 05:54:35;;;;;;;7.72;2.90;;;28.10;99.90;;;;;;5091635;28;20478;-65
2021/07/08 05:57:08;;;;;;;3.22;3.00;;;28.10;99.90;;;;;;5091826;28;20056;-64
2021/07/08 05:59:34;;;;;;;5.70;2.97;;;28.30;99.90;;;;;;5106305;28;20030;-65
2021/07/08 06:02:00;;;;;;;9.00;2.63;;;28.30;99.90;;;;;;5111845;28;20019;-65
2021/07/08 06:04:25;;;;;;;5.57;3.38;;;28.30;99.90;;;;;;5093606;28;20036;-65
2021/07/08 06:06:51;;;;;;;11.65;4.70;;;28.40;99.90;;;;;;5099712;27;20041;-64
2021/07/08 06:09:19;;;;;;;6.57;3.40;;;28.50;99.90;;;;;;5110560;28;20050;-66
2021/07/08 06:11:45;;;;;;;8.18;3.30;;;28.60;99.90;;;;;;5112564;28;20050;-67
2021/07/08 06:14:13;;;;;;;5.18;2.58;;;28.60;99.90;;;;;;5113017;28;20385;-65
2021/07/08 06:16:39;;;;;;;5.35;3.75;;;28.70;99.90;;;;;;5105974;28;20035;-66
2021/07/08 06:19:04;;;;;;;2.35;2.25;;;28.80;99.90;;;;;;5129051;27;20031;-66
2021/07/08 06:21:33;;;;;;;6.13;3.25;;;28.80;99.90;;;;;;5111409;28;20076;-67
2021/07/08 06:23:59;;;;;;;5.53;2.90;;;28.90;99.90;;;;;;5100083;28;20405;-66
2021/07/08 06:26:25;;;;;;;5.75;2.85;;;29.00;99.90;;;;;;5091501;28;20027;-64
2021/07/08 06:28:50;;;;;;;6.47;3.20;;;29.10;99.90;;;;;;5091745;28;20024;-66
2021/07/08 06:31:16;;;;;;;4.88;3.13;;;29.20;99.90;;;;;;5092628;28;20016;-65
2021/07/08 06:33:44;;;;;;;8.45;3.20;;;29.30;99.90;;;;;;5090702;28;20066;-65
2021/07/08 06:36:10;;;;;;;9.27;3.47;;;29.40;99.90;;;;;;5090891;28;20474;-65
2021/07/08 06:38:36;;;;;;;4.20;2.70;;;29.50;99.90;;;;;;5090374;28;20087;-67
2021/07/08 06:41:01;;;;;;;6.07;3.22;;;29.60;99.90;;;;;;5090592;28;20026;-65
2021/07/08 06:43:27;;;;;;;3.10;2.90;;;29.90;99.90;;;;;;5100524;27;20059;-65
2021/07/08 06:45:55;;;;;;;3.20;2.95;;;29.80;99.90;;;;;;5102409;28;20039;-66
2021/07/08 06:48:21;;;;;;;4.00;3.50;;;29.90;99.90;;;;;;5109657;28;20027;-65
2021/07/08 06:50:49;;;;;;;4.28;3.88;;;29.90;99.90;;;;;;5106619;28;20586;-66
2021/07/08 06:53:15;;;;;;;4.85;3.00;;;30.00;99.90;;;;;;5108435;28;20024;-65
2021/07/08 06:55:41;;;;;;;6.65;3.05;;;30.00;99.90;;;;;;5110939;28;20030;-66
2021/07/08 06:58:06;;;;;;;8.25;2.55;;;30.00;99.90;;;;;;5110512;28;20027;-65
2021/07/08 07:00:36;;;;;;;3.28;2.88;;;30.30;99.90;;;;;;5110849;28;20504;-65
2021/07/08 07:03:03;;;;;;;2.60;2.40;;;30.40;99.90;;;;;;5111551;28;20477;-66
2021/07/08 07:05:29;;;;;;;7.80;2.58;;;30.60;99.90;;;;;;5110674;28;20457;-65
2021/07/08 07:07:56;;;;;;;6.68;2.72;;;30.60;99.90;;;;;;5110146;28;20051;-66
2021/07/08 07:10:23;;;;;;;7.72;2.78;;;30.60;99.90;;;;;;5106957;28;20103;-67
2021/07/08 07:12:54;;;;;;;9.15;3.25;;;30.60;99.90;;;;;;5092846;28;20054;-61
2021/07/08 07:15:22;;;;;;;5.55;3.05;;;30.50;99.90;;;;;;5109302;28;20032;-62
2021/07/08 07:17:48;;;;;;;6.78;2.58;;;30.20;99.90;;;;;;5100968;28;20516;-62
2021/07/08 07:20:16;;;;;;;3.08;2.78;;;29.90;99.90;;;;;;5102662;28;20028;-62
2021/07/08 07:22:47;;;;;;;5.88;3.53;;;29.90;99.90;;;;;;5111039;28;20031;-62
2021/07/08 07:25:16;;;;;;;10.50;3.30;;;29.90;99.90;;;;;;5105259;28;20038;-61
2021/07/08 07:27:45;;;;;;;6.50;3.50;;;29.80;99.90;;;;;;5108660;28;20077;-62
2021/07/08 07:30:11;;;;;;;10.63;4.93;;;29.90;99.90;;;;;;5108655;28;20123;-63
2021/07/08 07:32:39;;;;;;;2.65;2.45;;;30.00;99.90;;;;;;5101409;28;20077;-62
2021/07/08 07:35:05;;;;;;;8.63;2.95;;;30.10;99.90;;;;;;5109791;28;20031;-62
2021/07/08 07:37:50;;;;;;;8.20;2.85;;;30.30;99.90;;;;;;5109012;28;20027;-62
2021/07/08 07:40:20;;;;;;;11.68;3.85;;;30.50;99.90;;;;;;5095949;28;20042;-62
2021/07/08 07:42:53;;;;;;;6.63;2.75;;;30.70;99.90;;;;;;5109962;28;20058;-61
2021/07/08 07:45:19;;;;;;;10.20;3.20;;;31.10;99.90;;;;;;5107791;28;20012;-61
2021/07/08 07:47:47;;;;;;;9.70;3.40;;;31.30;99.90;;;;;;5102356;28;20028;-62
2021/07/08 07:50:13;;;;;;;3.05;2.50;;;31.50;99.90;;;;;;5103707;28;20032;-61
2021/07/08 07:52:39;;;;;;;5.82;2.50;;;31.80;99.90;;;;;;5101380;28;20031;-61
2021/07/08 07:55:06;;;;;;;8.63;2.50;;;31.80;99.90;;;;;;5111638;28;20030;-59
2021/07/08 07:57:33;;;;;;;11.52;3.05;;;31.70;99.90;;;;;;5110645;28;20081;-61
2021/07/08 07:59:58;;;;;;;10.70;2.92;;;31.60;99.90;;;;;;5104147;28;20383;-61
2021/07/08 08:02:30;;;;;;;5.93;2.60;;;31.50;99.90;;;;;;5109192;28;20024;-63
2021/07/08 08:10:15;;;;;;;8.18;2.10;;;31.30;99.90;;;;;;5115987;27;20057;-61
2021/07/08 08:12:41;;;;;;;12.32;2.78;;;31.60;99.90;;;;;;5115418;27;20046;-62
2021/07/08 08:15:08;;;;;;;5.43;2.20;;;31.70;99.90;;;;;;5113440;28;20027;-61
2021/07/08 08:17:35;;;;;;;6.05;2.72;;;31.70;99.90;;;;;;5113148;28;20023;-61
2021/07/08 08:20:02;;;;;;;7.45;2.22;;;31.60;99.90;;;;;;5112660;28;20592;-63
2021/07/08 08:22:27;;;;;;;5.75;3.00;;;31.40;99.90;;;;;;5110213;28;20016;-62
2021/07/08 08:24:53;;;;;;;5.53;2.42;;;31.30;99.90;;;;;;5111441;27;20485;-62
2021/07/08 08:27:19;;;;;;;4.95;2.70;;;31.40;99.90;;;;;;5093185;28;20028;-62
2021/07/08 08:29:45;;;;;;;2.83;2.20;;;31.60;99.90;;;;;;5092669;28;20028;-63
2021/07/08 08:32:10;;;;;;;6.60;2.58;;;31.60;99.90;;;;;;5092967;28;20020;-62
2021/07/08 08:34:37;;;;;;;5.60;2.58;;;31.80;99.90;;;;;;5107499;28;20159;-62
2021/07/08 08:37:03;;;;;;;7.60;2.38;;;31.80;99.90;;;;;;5111726;27;20062;-63
2021/07/08 08:39:29;;;;;;;10.43;2.80;;;31.60;99.90;;;;;;5112278;27;20027;-63
2021/07/08 08:41:55;;;;;;;8.60;4.20;;;31.60;99.90;;;;;;5112955;28;20035;-66
2021/07/08 08:44:21;;;;;;;9.60;4.30;;;31.00;99.90;;;;;;5112984;28;20501;-65
2021/07/08 08:46:47;;;;;;;11.63;4.35;;;30.50;99.90;;;;;;5112704;28;20047;-64
2021/07/08 08:49:12;;;;;;;9.23;4.15;;;30.30;99.90;;;;;;5113666;28;20037;-64
2021/07/08 08:51:39;;;;;;;9.38;3.75;;;30.30;99.90;;;;;;5110690;27;20024;-64
2021/07/08 08:54:05;;;;;;;12.25;5.07;;;30.10;99.90;;;;;;5106034;28;20051;-65
2021/07/08 08:56:30;;;;;;;5.82;3.50;;;29.80;99.90;;;;;;5110606;28;20051;-64
2021/07/08 08:58:56;;;;;;;10.07;3.50;;;29.20;99.90;;;;;;5116126;27;20019;-65
2021/07/08 09:01:22;;;;;;;4.50;4.10;;;29.10;99.90;;;;;;5112576;28;20507;-65
2021/07/08 09:03:47;;;;;;;5.68;4.00;;;29.00;99.90;;;;;;5110533;28;20051;-64
2021/07/08 09:06:15;;;;;;;7.03;3.78;;;29.00;99.90;;;;;;5110833;28;20063;-63
2021/07/08 09:08:52;;;;;;;5.28;3.95;;;29.10;99.90;;;;;;5106658;28;20034;-63
2021/07/08 09:11:23;;;;;;;7.70;4.47;;;29.00;99.90;;;;;;5109509;28;20485;-64
2021/07/08 09:13:53;;;;;;;7.00;3.67;;;29.00;99.90;;;;;;5110394;28;20468;-62
2021/07/08 09:16:27;;;;;;;6.75;3.83;;;28.90;99.90;;;;;;5107674;28;20039;-62
2021/07/08 09:18:59;;;;;;;3.58;2.85;;;28.90;99.90;;;;;;5117300;27;20058;-64
2021/07/08 09:21:26;;;;;;;7.13;3.72;;;29.00;99.90;;;;;;5101874;28;20389;-64
2021/07/08 09:24:12;;;;;;;5.35;3.22;;;29.00;99.90;;;;;;5103856;28;20062;-62
2021/07/08 09:26:43;;;;;;;6.88;3.17;;;29.00;99.90;;;;;;5096214;28;20126;-63
2021/07/08 09:29:18;;;;;;;8.13;4.20;;;29.20;99.90;;;;;;5106697;28;20320;-63
2021/07/08 09:31:52;;;;;;;5.25;3.15;;;29.40;99.90;;;;;;5109894;28;20079;-63
2021/07/08 09:34:21;;;;;;;5.65;3.25;;;29.60;99.90;;;;;;5091498;28;20020;-64
2021/07/08 09:36:59;;;;;;;5.63;3.72;;;29.60;99.90;;;;;;5091406;28;20478;-64
2021/07/08 09:39:25;;;;;;;6.57;3.30;;;29.70;99.90;;;;;;5102074;28;20032;-64
2021/07/08 09:41:52;;;;;;;10.00;4.45;;;29.70;99.90;;;;;;5108989;28;20034;-64
2021/07/08 09:44:24;;;;;;;4.78;4.13;;;29.90;99.90;;;;;;5111173;28;20083;-62
2021/07/08 09:46:50;;;;;;;3.70;3.40;;;30.00;99.90;;;;;;5103267;28;20376;-65
2021/07/08 09:49:16;;;;;;;4.25;3.83;;;30.20;99.90;;;;;;5106409;27;20073;-64
2021/07/08 09:51:44;;;;;;;7.43;4.03;;;30.60;99.90;;;;;;5106200;28;20025;-65
2021/07/08 09:54:17;;;;;;;3.10;2.90;;;30.80;99.90;;;;;;5107107;28;20070;-63
2021/07/08 09:56:53;;;;;;;6.60;3.85;;;30.80;99.90;;;;;;5089943;28;20486;-64
2021/07/08 09:59:33;;;;;;;5.10;3.25;;;31.00;99.90;;;;;;5089596;28;20532;-64
2021/07/08 10:01:59;;;;;;;5.97;2.90;;;31.00;99.90;;;;;;5104047;28;20031;-62
2021/07/08 10:04:25;;;;;;;5.47;3.92;;;31.20;99.90;;;;;;5105774;28;20044;-64
2021/07/08 10:06:54;;;;;;;6.00;3.80;;;31.40;99.90;;;;;;5089635;28;20071;-64
2021/07/08 10:09:20;;;;;;;6.22;3.72;;;31.30;99.90;;;;;;5090812;28;20214;-65
2021/07/08 10:11:49;;;;;;;3.75;3.20;;;31.30;99.90;;;;;;5089950;28;20016;-64
2021/07/08 10:14:18;;;;;;;4.13;3.83;;;31.20;99.90;;;;;;5101882;28;20489;-63
2021/07/08 10:16:48;;;;;;;6.15;3.78;;;31.10;99.90;;;;;;5098256;28;20478;-64
2021/07/08 10:19:18;;;;;;;10.10;5.22;;;30.80;99.90;;;;;;5101086;28;20070;-64
2021/07/08 10:21:46;;;;;;;4.88;4.43;;;30.60;99.90;;;;;;5110526;28;20031;-65
2021/07/08 10:24:13;;;;;;;16.27;5.03;;;30.40;99.90;;;;;;5110951;28;20020;-64
2021/07/08 10:26:39;;;;;;;5.05;4.55;;;30.20;99.90;;;;;;5110219;28;20358;-64
2021/07/08 10:29:06;;;;;;;6.15;4.07;;;30.20;99.90;;;;;;5111173;28;20020;-63
2021/07/08 10:31:32;;;;;;;13.60;4.25;;;30.00;99.90;;;;;;5110735;28;20486;-63
2021/07/08 10:34:11;;;;;;;10.93;4.05;;;29.90;99.90;;;;;;5095656;28;20067;-64
2021/07/08 10:36:39;;;;;;;13.20;4.00;;;29.90;99.90;;;;;;5091198;28;20031;-63
2021/07/08 10:39:06;;;;;;;9.38;4.40;;;29.90;99.90;;;;;;5105863;28;20024;-64
2021/07/08 10:41:35;;;;;;;10.45;5.10;;;29.90;99.90;;;;;;5108349;28;20447;-64
2021/07/08 10:44:01;;;;;;;9.77;4.82;;;29.80;99.90;;;;;;5110891;28;20024;-66
2021/07/08 10:46:35;;;;;;;13.30;5.57;;;29.80;99.90;;;;;;5097987;28;20036;-65
2021/07/08 10:49:20;;;;;;;7.13;4.38;;;29.90;99.90;;;;;;5110879;28;20107;-64
2021/07/08 10:51:49;;;;;;;10.65;5.28;;;29.90;99.90;;;;;;5110276;28;20496;-62
2021/07/08 10:54:24;;;;;;;12.60;4.35;;;29.90;99.90;;;;;;5106355;28;20103;-64
2021/07/08 10:56:50;;;;;;;8.80;4.50;;;30.10;99.90;;;;;;5091308;28;20039;-63
2021/07/08 10:59:17;;;;;;;6.13;4.20;;;30.00;99.90;;;;;;5090135;28;20040;-62
2021/07/08 11:01:54;;;;;;;8.88;4.43;;;30.00;99.90;;;;;;5092321;28;20038;-66
2021/07/08 11:04:42;;;;;;;9.68;4.53;;;29.90;99.90;;;;;;5108524;28;20076;-64
2021/07/08 11:07:18;;;;;;;9.40;4.13;;;30.00;99.90;;;;;;5110184;28;20023;-65
2021/07/08 11:10:06;;;;;;;6.55;3.95;;;30.30;99.90;;;;;;5103828;28;20111;-66
2021/07/08 11:12:36;;;;;;;8.63;4.10;;;30.60;99.90;;;;;;5110534;28;20091;-64
2021/07/08 11:15:04;;;;;;;11.07;4.15;;;30.80;99.90;;;;;;5110746;28;20027;-65
2021/07/08 11:17:42;;;;;;;8.63;3.67;;;31.10;99.90;;;;;;5099275;28;20502;-69
2021/07/08 11:20:30;;;;;;;7.82;3.63;;;31.40;99.90;;;;;;5090515;28;20020;-68
2021/07/08 11:22:56;;;;;;;6.97;3.60;;;31.50;99.90;;;;;;5084674;28;20066;-70
2021/07/08 11:25:40;;;;;;;3.83;3.47;;;31.60;99.90;;;;;;5110584;28;20020;-70
2021/07/08 11:28:26;;;;;;;4.53;3.58;;;31.70;99.90;;;;;;5110628;28;20047;-69
2021/07/08 11:31:06;;;;;;;6.35;3.17;;;31.60;99.90;;;;;;5110127;28;20469;-70
2021/07/08 11:33:36;;;;;;;5.97;3.30;;;31.90;99.90;;;;;;5110720;28;20024;-68
2021/07/08 11:36:12;;;;;;;7.28;3.90;;;32.20;99.90;;;;;;5110047;28;20303;-70
2021/07/08 11:38:43;;;;;;;7.53;4.28;;;32.40;99.90;;;;;;5111644;28;20027;-68
2021/07/08 11:41:10;;;;;;;7.60;4.25;;;32.40;99.90;;;;;;5115748;28;20024;-69
2021/07/08 11:43:39;;;;;;;8.13;3.08;;;32.40;99.90;;;;;;5115596;28;20031;-69
2021/07/08 11:46:13;;;;;;;5.55;2.72;;;32.40;99.90;;;;;;5113650;28;20031;-71
2021/07/08 11:48:41;;;;;;;14.40;9.35;;;32.60;99.90;;;;;;5114040;28;20023;-70
2021/07/08 11:51:19;;;;;;;3.15;2.80;;;32.80;99.90;;;;;;5113498;28;20047;-69
2021/07/08 11:53:46;;;;;;;7.55;5.82;;;32.90;99.90;;;;;;5114100;27;20018;-70
2021/07/08 11:56:15;;;;;;;9.65;4.38;;;32.90;99.90;;;;;;5114037;28;20028;-70
2021/07/08 11:58:43;;;;;;;7.32;4.30;;;33.00;99.90;;;;;;5113899;28;20034;-71
2021/07/08 12:01:12;;;;;;;3.70;2.72;;;33.00;99.90;;;;;;5112522;28;20030;-69
2021/07/08 12:03:44;;;;;;;14.43;10.38;;;32.90;99.90;;;;;;5112647;28;20140;-71
2021/07/08 12:06:11;;;;;;;7.47;3.65;;;32.70;99.90;;;;;;5112984;28;20389;-69
2021/07/08 12:09:08;;;;;;;8.18;2.83;;;32.70;99.90;;;;;;5109959;28;20020;-69
2021/07/08 12:11:40;;;;;;;7.40;3.63;;;32.80;99.90;;;;;;5112532;28;20528;-68
2021/07/08 12:14:13;;;;;;;8.60;7.25;;;32.80;99.90;;;;;;5113555;28;20702;-70
2021/07/08 12:16:47;;;;;;;5.82;4.28;;;32.90;99.90;;;;;;5098478;28;20437;-71
2021/07/08 12:19:27;;;;;;;12.00;3.58;;;33.00;99.90;;;;;;5092913;28;20027;-69
2021/07/08 12:21:54;;;;;;;15.23;4.18;;;33.20;99.90;;;;;;5112026;28;20101;-70
2021/07/08 12:24:23;;;;;;;4.68;4.25;;;33.60;99.90;;;;;;5099756;28;20035;-70
2021/07/08 12:26:49;;;;;;;9.32;3.20;;;33.60;99.90;;;;;;5093007;28;20028;-68
2021/07/08 12:29:18;;;;;;;6.57;2.80;;;33.80;99.90;;;;;;5092673;28;20390;-69
2021/07/08 12:31:46;;;;;;;7.85;3.63;;;34.00;99.90;;;;;;5095974;27;20422;-69
2021/07/08 12:34:12;;;;;;;7.68;3.13;;;34.30;99.90;;;;;;5093220;28;20020;-70
2021/07/08 12:36:38;;;;;;;6.18;2.95;;;34.60;99.90;;;;;;5108603;28;20039;-71
2021/07/08 12:39:04;;;;;;;4.50;3.05;;;34.60;99.90;;;;;;5131342;27;20513;-74
2021/07/08 12:41:31;;;;;;;5.95;2.50;;;34.90;99.90;;;;;;5102765;28;20032;-70
2021/07/08 12:43:56;;;;;;;4.68;3.03;;;35.00;99.90;;;;;;5111561;28;20032;-70
2021/07/08 12:46:31;;;;;;;9.80;2.42;;;35.10;99.90;;;;;;5113232;28;20038;-70
2021/07/08 12:48:57;;;;;;;3.75;2.70;;;35.20;99.90;;;;;;5112100;28;20016;-71
2021/07/08 12:51:23;;;;;;;5.90;2.72;;;35.00;99.90;;;;;;5110982;28;20497;-71
2021/07/08 12:53:50;;;;;;;9.70;3.10;;;35.00;99.90;;;;;;5108956;28;20020;-72
2021/07/08 12:56:16;;;;;;;12.50;3.03;;;35.20;99.90;;;;;;5092460;28;20063;-69